D/T METAR WX W/DIR W/SPE G/SPE TEMP DEWP
19/03/19 03:20 EGPF 190320Z AUTO 05002KT 3500 BR OVC003 06/06 Q1021 BR NE (50°) 2.3mph 6°C 6°C
19/03/19 02:50 EGPF 190250Z AUTO 05002KT 3900 BR OVC004/// //////CB 06/06 Q1021 BR NE (50°) 2.3mph 6°C 6°C
19/03/19 02:20 EGPF 190220Z AUTO 07002KT 3300 BR BKN005 OVC030 06/06 Q1021 BR ENE (70°) 2.3mph 6°C 6°C
19/03/19 01:50 EGPF 190150Z AUTO 05002KT 2900 BR SCT008/// SCT022/// BKN042/// //////CB 05/05 Q1021 BR NE (50°) 2.3mph 5°C 5°C
19/03/19 01:20 EGPF 190120Z AUTO VRB01KT 4200 BR SCT027/// OVC046/// //////CB 06/06 Q1021 BR N (0°) 1.2mph 6°C 6°C
19/03/19 00:50 EGPF 190050Z AUTO 23003KT 4200 BR FEW022 06/05 Q1021 BR SW (230°) 3.5mph 6°C 5°C
19/03/19 00:20 EGPF 190020Z AUTO 28002KT 3700 BR SCT031 05/05 Q1021 BR W (280°) 2.3mph 5°C 5°C
18/03/19 23:20 EGPF 182320Z AUTO 24005KT 5000 BR OVC021 06/05 Q1021 BR WSW (240°) 5.8mph 6°C 5°C
18/03/19 22:20 EGPF 182220Z AUTO 24004KT 6000 BKN020 05/05 Q1021 WSW (240°) 4.6mph 5°C 5°C
18/03/19 21:50 EGPF 182150Z AUTO 23005KT 3800 BR BKN020 OVC032 05/05 Q1021 BR SW (230°) 5.8mph 5°C 5°C
18/03/19 21:20 EGPF 182120Z 26003KT 6000 MIFG FEW016 SCT030 05/04 Q1021 MIFG W (260°) 3.5mph 5°C 4°C
18/03/19 20:50 EGPF 182050Z AUTO 25003KT 8000 SCT022 BKN029 07/06 Q1020 WSW (250°) 3.5mph 7°C 6°C
18/03/19 20:20 EGPF 182020Z AUTO 23004KT 8000 -RA BKN021 OVC026 07/06 Q1020 -RA SW (230°) 4.6mph 7°C 6°C
18/03/19 19:50 EGPF 181950Z AUTO 23003KT 9999 BKN023 OVC029 07/06 Q1020 SW (230°) 3.5mph 7°C 6°C
18/03/19 19:20 EGPF 181920Z AUTO 25002KT 9999 FEW014 BKN025 OVC030 07/06 Q1020 WSW (250°) 2.3mph 7°C 6°C
18/03/19 18:50 EGPF 181850Z AUTO 32001KT 9999 SCT011 BKN020 BKN025 08/06 Q1019 NW (320°) 1.2mph 8°C 6°C
18/03/19 18:20 EGPF 181820Z AUTO 30001KT 9999 OVC021 08/07 Q1019 WNW (300°) 1.2mph 8°C 7°C
18/03/19 17:50 EGPF 181750Z AUTO VRB02KT 9999 FEW018 OVC022 08/07 Q1018 N (0°) 2.3mph 8°C 7°C
18/03/19 17:20 EGPF 181720Z AUTO 22004KT 9999 BKN012/// BKN016/// OVC030/// //////CB 08/06 Q1018 SW (220°) 4.6mph 8°C 6°C
18/03/19 16:50 EGPF 181650Z AUTO 21006KT 9999 BKN011 BKN016 OVC033 09/06 Q1018 SSW (210°) 6.9mph 9°C 6°C
18/03/19 16:20 EGPF 181620Z AUTO 22006KT 9999 BKN015 OVC023 09/06 Q1017 SW (220°) 6.9mph 9°C 6°C
18/03/19 15:50 EGPF 181550Z AUTO 21007KT 9999 SCT016 BKN020 BKN027 09/06 Q1017 SSW (210°) 8.1mph 9°C 6°C
18/03/19 15:20 EGPF 181520Z AUTO 21006KT 170V240 9999 -RA BKN013 BKN019 OVC037 08/06 Q1017 -RA SSW (210°) 6.9mph 8°C 6°C
18/03/19 14:50 EGPF 181450Z AUTO 22006KT 9999 -RA BKN015 OVC034 08/06 Q1017 -RA SW (220°) 6.9mph 8°C 6°C
18/03/19 13:50 EGPF 181350Z AUTO 21009KT 9999 -RA SCT017/// BKN038/// //////TCU 08/05 Q1017 -RA SSW (210°) 10.4mph 8°C 5°C
18/03/19 13:20 EGPF 181320Z AUTO 21010KT 9999 SCT015/// BKN022/// //////TCU 08/06 Q1017 SSW (210°) 11.5mph 8°C 6°C
18/03/19 12:50 EGPF 181250Z AUTO 20010KT 9999 -RA SCT016/// BKN021/// BKN026/// //////TCU 08/05 Q1017 -RA SSW (200°) 11.5mph 8°C 5°C
18/03/19 12:20 EGPF 181220Z AUTO 21008KT 9999 -RA SCT016/// BKN023/// BKN038/// //////TCU 08/06 Q1017 -RA SSW (210°) 9.2mph 8°C 6°C
18/03/19 11:50 EGPF 181150Z AUTO 20006KT 9999 -RA SCT012/// BKN020/// OVC047/// //////CB 08/06 Q1017 -RA SSW (200°) 6.9mph 8°C 6°C
18/03/19 11:20 EGPF 181120Z AUTO 18004KT 140V240 9999 -RA BKN013/// //////CB 07/05 Q1016 -RA S (180°) 4.6mph 7°C 5°C
18/03/19 10:50 EGPF 181050Z AUTO VRB03KT 9999 -RA BKN014/// BKN023/// BKN040/// //////TCU 07/05 Q1016 -RA N (0°) 3.5mph 7°C 5°C
18/03/19 10:20 EGPF 181020Z AUTO VRB03KT 9999 -RA SCT014/// BKN018/// BKN027/// //////CB 07/04 Q1016 -RA N (0°) 3.5mph 7°C 4°C
18/03/19 09:50 EGPF 180950Z AUTO 19004KT 140V230 9999 -RA SCT022/// BKN031/// //////CB 06/04 Q1016 -RA S (190°) 4.6mph 6°C 4°C
18/03/19 09:20 EGPF 180920Z AUTO 22003KT 9999 -RA BKN019/// //////CB 06/04 Q1016 -RA SW (220°) 3.5mph 6°C 4°C
18/03/19 08:50 EGPF 180850Z AUTO 20005KT 9999 -RA BKN021/// BKN029/// //////CB 06/04 Q1016 -RA SSW (200°) 5.8mph 6°C 4°C
18/03/19 08:20 EGPF 180820Z AUTO VRB02KT 9999 -RA SCT026/// BKN032/// BKN042/// //////CB 05/04 Q1015 -RA N (0°) 2.3mph 5°C 4°C
18/03/19 07:50 EGPF 180750Z AUTO VRB01KT 9999 -RA BKN042/// //////CB 04/03 Q1015 -RA N (0°) 1.2mph 4°C 3°C
18/03/19 07:20 EGPF 180720Z AUTO VRB02KT 9999 -RA BKN044/// //////TCU 03/02 Q1015 -RA N (0°) 2.3mph 3°C 2°C
18/03/19 06:50 EGPF 180650Z AUTO VRB03KT 9999 //////CB 03/02 Q1015 N (0°) 3.5mph 3°C 2°C
18/03/19 06:20 EGPF 180620Z AUTO 08002KT 9999 SCT023 BKN030 02/02 Q1015 E (80°) 2.3mph 2°C 2°C
18/03/19 05:50 EGPF 180550Z AUTO 04004KT 9999 -RA BKN034/// BKN041/// //////CB 02/01 Q1015 -RA NE (40°) 4.6mph 2°C 1°C
18/03/19 05:20 EGPF 180520Z AUTO VRB01KT 9999 OVC040/// //////TCU 02/01 Q1014 N (0°) 1.2mph 2°C 1°C
18/03/19 04:50 EGPF 180450Z AUTO 11001KT 9999 BKN047/// //////TCU 02/01 Q1014 ESE (110°) 1.2mph 2°C 1°C
18/03/19 04:20 EGPF 180420Z AUTO 24001KT 9999 NCD 02/01 Q1014 WSW (240°) 1.2mph 2°C 1°C
18/03/19 03:50 EGPF 180350Z AUTO VRB03KT 9999 NCD 03/01 Q1014 N (0°) 3.5mph 3°C 1°C
18/03/19 03:20 EGPF 180320Z AUTO 23003KT 9999 NCD 03/01 Q1014 SW (230°) 3.5mph 3°C 1°C
18/03/19 02:50 EGPF 180250Z AUTO VRB01KT 9999 NCD 03/01 Q1014 N (0°) 1.2mph 3°C 1°C
18/03/19 02:20 EGPF 180220Z AUTO 22003KT 9999 NCD 02/00 Q1014 SW (220°) 3.5mph 2°C 0°C
18/03/19 01:50 EGPF 180150Z AUTO 23008KT 9999 NCD 02/00 Q1014 SW (230°) 9.2mph 2°C 0°C
18/03/19 01:20 EGPF 180120Z AUTO 25005KT 9999 NCD 02/01 Q1014 WSW (250°) 5.8mph 2°C 1°C
18/03/19 00:50 EGPF 180050Z AUTO 28008KT 9999 NCD 03/01 Q1013 W (280°) 9.2mph 3°C 1°C
18/03/19 00:20 EGPF 180020Z AUTO 31004KT 260V340 9999 NCD 03/00 Q1013 NW (310°) 4.6mph 3°C 0°C
17/03/19 23:50 EGPF 172350Z AUTO 25008KT 9999 NCD 03/01 Q1013 WSW (250°) 9.2mph 3°C 1°C
17/03/19 23:20 EGPF 172320Z AUTO 26006KT 9999 NCD 03/00 Q1013 W (260°) 6.9mph 3°C 0°C
17/03/19 22:50 EGPF 172250Z AUTO 28007KT 9999 NCD 04/01 Q1013 W (280°) 8.1mph 4°C 1°C
17/03/19 22:20 EGPF 172220Z AUTO 28008KT 9999 NCD 05/01 Q1012 W (280°) 9.2mph 5°C 1°C
17/03/19 21:50 EGPF 172150Z AUTO 25006KT 9999 NCD 04/M00 Q1012 WSW (250°) 6.9mph 4°C 0°C
17/03/19 21:20 EGPF 172120Z AUTO 22005KT 9999 NCD 04/M01 Q1012 SW (220°) 5.8mph 4°C -1°C
17/03/19 20:50 EGPF 172050Z AUTO 19005KT 9999 NCD 04/M00 Q1011 S (190°) 5.8mph 4°C 0°C
17/03/19 20:20 EGPF 172020Z AUTO 28005KT 9999 NCD 05/00 Q1011 W (280°) 5.8mph 5°C 0°C
17/03/19 19:50 EGPF 171950Z AUTO 30010KT 9999 NCD 05/00 Q1010 WNW (300°) 11.5mph 5°C 0°C
17/03/19 19:20 EGPF 171920Z AUTO 30012KT 9999 NCD 06/00 Q1010 WNW (300°) 13.8mph 6°C 0°C
17/03/19 18:50 EGPF 171850Z AUTO 29010KT 9999 NCD 06/M00 Q1009 WNW (290°) 11.5mph 6°C 0°C
17/03/19 18:20 EGPF 171820Z AUTO 28008KT 9999 NCD 07/01 Q1008 W (280°) 9.2mph 7°C 1°C
17/03/19 17:50 EGPF 171750Z AUTO 30008KT 9999 NCD 07/01 Q1007 WNW (300°) 9.2mph 7°C 1°C
17/03/19 17:20 EGPF 171720Z AUTO 31005KT 270V360 9999 SCT036 08/02 Q1007 NW (310°) 5.8mph 8°C 2°C
17/03/19 16:50 EGPF 171650Z AUTO 36009KT 9999 BKN035 09/02 Q1006 N (360°) 10.4mph 9°C 2°C
17/03/19 16:20 EGPF 171620Z AUTO 29014KT 9999 BKN039/// BKN049/// //////CB 10/03 Q1005 WNW (290°) 16.1mph 10°C 3°C
17/03/19 15:50 EGPF 171550Z AUTO 29015KT 9999 SCT038 BKN046 10/03 Q1004 WNW (290°) 17.3mph 10°C 3°C
17/03/19 15:20 EGPF 171520Z AUTO 28013KT 9999 FEW036 SCT047 10/03 Q1003 W (280°) 15.0mph 10°C 3°C
17/03/19 14:50 EGPF 171450Z AUTO 29014KT 9999 SCT037 10/03 Q1003 WNW (290°) 16.1mph 10°C 3°C
17/03/19 14:20 EGPF 171420Z AUTO 29015KT 9999 SCT038 BKN047 10/04 Q1002 WNW (290°) 17.3mph 10°C 4°C
17/03/19 13:50 EGPF 171350Z AUTO 28011KT 9999 BKN032 09/04 Q1001 W (280°) 12.7mph 9°C 4°C
17/03/19 13:20 EGPF 171320Z AUTO 28009KT 240V310 9999 BKN031 08/03 Q1001 W (280°) 10.4mph 8°C 3°C
17/03/19 12:50 EGPF 171250Z AUTO 28011KT 250V310 9999 FEW028 BKN033 08/03 Q1000 W (280°) 12.7mph 8°C 3°C
17/03/19 12:20 EGPF 171220Z AUTO 27010KT 9999 BKN024 BKN031 08/03 Q1000 W (270°) 11.5mph 8°C 3°C
17/03/19 11:50 EGPF 171150Z AUTO 26010KT 230V300 9999 BKN023 BKN031 08/04 Q0999 W (260°) 11.5mph 8°C 4°C
17/03/19 11:20 EGPF 171120Z AUTO 27008KT 230V310 9999 FEW020 SCT024 BKN030 07/03 Q0999 W (270°) 9.2mph 7°C 3°C
17/03/19 10:50 EGPF 171050Z AUTO 25013KT 9999 FEW019 07/04 Q0998 WSW (250°) 15.0mph 7°C 4°C
17/03/19 10:20 EGPF 171020Z AUTO 25010KT 9999 BKN017/// BKN028/// BKN036/// //////TCU 05/03 Q0998 WSW (250°) 11.5mph 5°C 3°C
17/03/19 09:50 EGPF 170950Z AUTO 25011KT 9999 -RA SCT023/// OVC031/// //////TCU 05/02 Q0997 -RA WSW (250°) 12.7mph 5°C 2°C
17/03/19 09:20 EGPF 170920Z AUTO 24014KT 9999 BKN042 05/02 Q0996 WSW (240°) 16.1mph 5°C 2°C
17/03/19 08:50 EGPF 170850Z AUTO 24013KT 9999 FEW040 04/02 Q0996 WSW (240°) 15.0mph 4°C 2°C
17/03/19 08:20 EGPF 170820Z AUTO 22013KT 9999 NCD 03/01 Q0996 SW (220°) 15.0mph 3°C 1°C
17/03/19 07:50 EGPF 170750Z AUTO 23011KT 9999 NCD 02/01 Q0995 SW (230°) 12.7mph 2°C 1°C
17/03/19 07:20 EGPF 170720Z AUTO 24009KT 9999 //////TCU 02/01 Q0995 WSW (240°) 10.4mph 2°C 1°C
17/03/19 06:50 EGPF 170650Z AUTO 25009KT 9999 -RA FEW015 SCT022 BKN035 02/00 Q0994 RESHRA RERA -RA RA WSW (250°) 10.4mph 2°C 0°C
17/03/19 06:20 EGPF 170620Z 25009KT 9999 4500NW SHRA FEW026TCU BKN030 02/00 Q0994 SHRA WSW (250°) 10.4mph 2°C 0°C
17/03/19 05:50 EGPF 170550Z AUTO 30003KT 9999 FEW016 SCT041 01/00 Q0994 RERA WNW (300°) 3.5mph 1°C 0°C
17/03/19 05:20 EGPF 170520Z AUTO 28014KT 2800 -RA SCT016 BKN028 02/01 Q0994 -RA W (280°) 16.1mph 2°C 1°C
17/03/19 04:50 EGPF 170450Z AUTO 24009KT 9999 SCT030 01/M00 Q0993 WSW (240°) 10.4mph 1°C 0°C
17/03/19 04:20 EGPF 170420Z AUTO 23013KT 9999 NCD 01/M00 Q0993 SW (230°) 15.0mph 1°C 0°C
17/03/19 03:50 EGPF 170350Z AUTO 23009KT 9999 FEW029 02/M00 Q0992 SW (230°) 10.4mph 2°C 0°C
17/03/19 03:20 EGPF 170320Z AUTO 25009KT 9999 FEW033 02/00 Q0992 WSW (250°) 10.4mph 2°C 0°C
17/03/19 02:50 EGPF 170250Z AUTO 25009KT 9999 -RA FEW014 SCT022 02/01 Q0992 -RA WSW (250°) 10.4mph 2°C 1°C
17/03/19 02:20 EGPF 170220Z AUTO 24011KT 9999 BKN026/// BKN036/// BKN047/// //////TCU 02/01 Q0992 WSW (240°) 12.7mph 2°C 1°C
17/03/19 01:50 EGPF 170150Z AUTO 24006KT 9999 SCT028 02/M00 Q0992 WSW (240°) 6.9mph 2°C 0°C
17/03/19 01:20 EGPF 170120Z AUTO 24009KT 9999 FEW035 02/01 Q0992 WSW (240°) 10.4mph 2°C 1°C
17/03/19 00:50 EGPF 170050Z AUTO 25011KT 9999 SCT036/// //////TCU 03/01 Q0991 WSW (250°) 12.7mph 3°C 1°C
17/03/19 00:20 EGPF 170020Z AUTO 24008KT 9999 //////TCU 02/M00 Q0991 WSW (240°) 9.2mph 2°C 0°C
16/03/19 23:50 EGPF 162350Z AUTO 24011KT 9999 FEW032 01/00 Q0991 WSW (240°) 12.7mph 1°C 0°C
16/03/19 23:20 EGPF 162320Z AUTO 25012KT 9999 FEW036 03/00 Q0991 WSW (250°) 13.8mph 3°C 0°C
16/03/19 22:50 EGPF 162250Z AUTO 24006KT 9999 NCD 02/M00 Q0990 WSW (240°) 6.9mph 2°C 0°C
16/03/19 22:20 EGPF 162220Z AUTO 25009KT 9999 SCT026 03/00 Q0990 WSW (250°) 10.4mph 3°C 0°C
16/03/19 21:50 EGPF 162150Z AUTO 25012KT 9999 BKN025 03/01 Q0990 WSW (250°) 13.8mph 3°C 1°C
16/03/19 21:20 EGPF 162120Z AUTO 25012KT 9999 BKN024 03/01 Q0989 WSW (250°) 13.8mph 3°C 1°C
16/03/19 20:50 EGPF 162050Z AUTO 25012KT 9999 BKN024 BKN029 03/01 Q0989 WSW (250°) 13.8mph 3°C 1°C
16/03/19 20:20 EGPF 162020Z AUTO 26009KT 9999 SCT024 03/01 Q0988 W (260°) 10.4mph 3°C 1°C
16/03/19 19:50 EGPF 161950Z AUTO 20004KT 170V250 9999 FEW025 02/00 Q0988 SSW (200°) 4.6mph 2°C 0°C
16/03/19 19:20 EGPF 161920Z AUTO 22004KT 170V290 9999 SCT024 03/00 Q0987 SW (220°) 4.6mph 3°C 0°C
16/03/19 18:50 EGPF 161850Z AUTO 27005KT 230V300 9999 BKN018 03/01 Q0987 W (270°) 5.8mph 3°C 1°C
16/03/19 18:20 EGPF 161820Z AUTO 28011KT 9999 SCT020 03/01 Q0986 W (280°) 12.7mph 3°C 1°C
16/03/19 17:50 EGPF 161750Z AUTO 27009KT 9999 BKN017 04/02 Q0986 W (270°) 10.4mph 4°C 2°C
16/03/19 17:20 EGPF 161720Z AUTO 28011KT 9999 -RA FEW017 SCT033 BKN048 04/02 Q0985 -RA W (280°) 12.7mph 4°C 2°C
16/03/19 16:50 EGPF 161650Z AUTO 26009KT 9999 -RA SCT017 SCT026 BKN034 03/02 Q0985 -RA W (260°) 10.4mph 3°C 2°C
16/03/19 16:20 EGPF 161620Z AUTO 27008KT 9999 -RA FEW009 SCT024 BKN037 03/03 Q0984 -RA W (270°) 9.2mph 3°C 3°C
16/03/19 15:50 EGPF 161550Z AUTO 29010KT 6000 -RA SCT008 BKN014 BKN029 03/02 Q0983 -RA WNW (290°) 11.5mph 3°C 2°C
16/03/19 15:20 EGPF 161520Z AUTO 31009KT 9999 -RA SCT014 BKN021 OVC043 03/02 Q0983 -RA NW (310°) 10.4mph 3°C 2°C
16/03/19 14:50 EGPF 161450Z AUTO 32007KT 280V360 9000 -RA BKN008 OVC018 03/02 Q0982 REDZ -RA NW (320°) 8.1mph 3°C 2°C
16/03/19 14:20 EGPF 161420Z AUTO 35007KT 2100 DZ OVC008 03/02 Q0982 DZ N (350°) 8.1mph 3°C 2°C
16/03/19 13:50 EGPF 161350Z AUTO 32004KT 7000 -RA SCT007/// OVC010/// //////TCU 03/02 Q0982 -RA NW (320°) 4.6mph 3°C 2°C
16/03/19 13:20 EGPF 161320Z AUTO VRB02KT 4900 -RADZ BKN005/// OVC011/// //////TCU 03/02 Q0982 -RA -DZ N (0°) 2.3mph 3°C 2°C
16/03/19 12:50 EGPF 161250Z AUTO VRB02KT 4300 -RA BKN006/// OVC032/// //////TCU 02/02 Q0982 RERA -RA N (0°) 2.3mph 2°C 2°C
16/03/19 12:20 EGPF 161220Z AUTO 05010KT 2300 RA BKN006/// OVC015/// //////TCU 02/01 Q0983 RA NE (50°) 11.5mph 2°C 1°C
16/03/19 11:50 EGPF 161150Z AUTO 05010KT 6000 -RA BKN005/// OVC013/// //////CB 01/01 Q0983 -RA NE (50°) 11.5mph 1°C 1°C
16/03/19 11:20 EGPF 161120Z 06012KT 2700 R05/1400 -RA OVC005CB 01/01 Q0984 -RA ENE (60°) 13.8mph 1°C 1°C
16/03/19 10:50 EGPF 161050Z 06012G22KT 4000 R05/1400 -RA OVC005CB 01/01 Q0985 -RA ENE (60°) 13.8mph 25.3mph 1°C 1°C
16/03/19 10:20 EGPF 161020Z 07012KT 4400 -RA OVC006CB 01/01 Q0985 -RA ENE (70°) 13.8mph 1°C 1°C
16/03/19 09:50 EGPF 160950Z 08010KT 050V110 4400 -RASN OVC005CB 01/00 Q0986 RESN RERA -RA -SN RA E (80°) 11.5mph 1°C 0°C
16/03/19 09:20 EGPF 160920Z 07011KT 2400 R05/1200 +RASN OVC004CB 01/00 Q0987 SN +RA ENE (70°) 12.7mph 1°C 0°C
16/03/19 08:50 EGPF 160850Z 07012KT 2400 R05/1400 -RASN BKN004TCU OVC022 01/00 Q0988 SN -RA ENE (70°) 13.8mph 1°C 0°C
16/03/19 08:20 EGPF 160820Z 06011KT 3200 R05/1300 +RASN BKN004TCU OVC020 01/00 Q0989 SN +RA ENE (60°) 12.7mph 1°C 0°C
16/03/19 07:50 EGPF 160750Z AUTO 05010KT 3200 -SN BKN003/// OVC025/// //////TCU 01/00 Q0990 -SN NE (50°) 11.5mph 1°C 0°C
16/03/19 07:20 EGPF 160720Z AUTO 06008KT 1600 -SN BKN003 OVC010 00/M00 Q0991 RESN RERA -SN RA ENE (60°) 9.2mph 0°C 0°C
16/03/19 06:50 EGPF 160650Z AUTO 06006KT 3200 -SN BKN004 OVC012 01/00 Q0993 RESN RERA -SN RA ENE (60°) 6.9mph 1°C 0°C
16/03/19 06:20 EGPF 160620Z AUTO 09007KT 040V120 6000 -RA BKN006 OVC012 02/01 Q0993 -RA E (90°) 8.1mph 2°C 1°C
16/03/19 05:50 EGPF 160550Z AUTO 10007KT 7000 -RA BKN007 OVC014 02/01 Q0994 -RA E (100°) 8.1mph 2°C 1°C
16/03/19 05:20 EGPF 160520Z AUTO VRB03KT 6000 -RA BKN008 OVC015 03/01 Q0995 RERA -RA N (0°) 3.5mph 3°C 1°C
16/03/19 04:50 EGPF 160450Z AUTO 21003KT 4100 -RA BKN010 OVC017 03/02 Q0996 -RA SSW (210°) 3.5mph 3°C 2°C
16/03/19 04:20 EGPF 160420Z AUTO VRB02KT 4400 -RA BKN012 OVC026 04/02 Q0996 -RA N (0°) 2.3mph 4°C 2°C
16/03/19 03:50 EGPF 160350Z AUTO VRB01KT 9999 -RA SCT012 BKN028 04/02 Q0997 -RA N (0°) 1.2mph 4°C 2°C
16/03/19 03:20 EGPF 160320Z AUTO VRB02KT 9999 SCT012 BKN040 04/02 Q0997 N (0°) 2.3mph 4°C 2°C
16/03/19 02:50 EGPF 160250Z AUTO 23006KT 9999 NCD 04/02 Q0998 SW (230°) 6.9mph 4°C 2°C
16/03/19 01:50 EGPF 160150Z AUTO 22011KT 9999 NCD 04/02 Q0999 SW (220°) 12.7mph 4°C 2°C